createdAt,value
2017-07-26T00:01:17.399Z,99.99
2017-07-26T00:02:39.238Z,99.99
2017-07-26T00:04:01.446Z,99.99
2017-07-26T00:05:23.293Z,99.99
2017-07-26T00:06:45.747Z,99.99
2017-07-26T00:08:08.025Z,99.99
2017-07-26T00:09:29.866Z,99.99
2017-07-26T00:10:52.030Z,99.99
2017-07-26T00:12:14.542Z,99.99
2017-07-26T00:13:36.724Z,99.99
2017-07-26T00:14:58.892Z,99.99
2017-07-26T00:16:20.737Z,99.99
2017-07-26T00:17:43.237Z,99.99
2017-07-26T00:19:05.084Z,99.99
2017-07-26T00:20:26.935Z,99.99
2017-07-26T00:21:49.517Z,99.99
2017-07-26T00:23:12.238Z,99.99
2017-07-26T00:24:34.387Z,99.99
2017-07-26T00:25:56.566Z,99.99
2017-07-26T00:27:18.774Z,99.99
2017-07-26T00:28:41.105Z,99.99
2017-07-26T00:30:03.327Z,99.99
2017-07-26T00:31:24.837Z,99.99
2017-07-26T00:32:46.688Z,99.99
2017-07-26T00:34:09.185Z,99.99
2017-07-26T00:35:31.104Z,99.99
2017-07-26T00:36:53.592Z,99.99
2017-07-26T00:38:15.536Z,99.99
2017-07-26T00:39:37.720Z,99.99
2017-07-26T00:40:59.572Z,99.99
2017-07-26T00:42:21.425Z,99.99
2017-07-26T00:43:42.644Z,99.99
2017-07-26T00:45:05.098Z,99.99
2017-07-26T00:46:26.646Z,99.99
2017-07-26T00:47:48.597Z,99.99
2017-07-26T00:49:10.752Z,99.99
2017-07-26T00:50:33.173Z,99.99
2017-07-26T00:51:55.138Z,99.99
2017-07-26T00:53:17.287Z,99.99
2017-07-26T00:54:39.135Z,99.99
2017-07-26T00:56:01.226Z,99.99
2017-07-26T00:57:22.745Z,99.99
2017-07-26T00:58:44.578Z,99.99
2017-07-26T01:00:06.148Z,99.99
2017-07-26T01:01:28.916Z,99.99
2017-07-26T01:02:50.767Z,99.99
2017-07-26T01:04:12.917Z,99.99
2017-07-26T01:05:35.156Z,99.99
2017-07-26T01:06:57.908Z,99.99
2017-07-26T01:08:20.060Z,99.99
2017-07-26T01:09:42.228Z,99.99
2017-07-26T01:11:04.395Z,99.99
2017-07-26T01:12:26.629Z,99.99
2017-07-26T01:13:48.163Z,99.99
2017-07-26T01:15:10.632Z,99.99
2017-07-26T01:16:31.834Z,99.99
2017-07-26T01:17:53.663Z,99.99
2017-07-26T01:19:15.826Z,99.99
2017-07-26T01:20:37.973Z,99.99
2017-07-26T01:22:00.457Z,99.99
2017-07-26T01:23:23.317Z,99.99
2017-07-26T01:24:45.136Z,99.99
2017-07-26T01:26:07.627Z,99.99
2017-07-26T01:27:29.758Z,99.99
2017-07-26T01:28:52.149Z,99.99
2017-07-26T01:30:14.316Z,99.99
2017-07-26T01:31:36.508Z,99.99
2017-07-26T01:32:58.977Z,99.99
2017-07-26T01:34:21.102Z,99.99
2017-07-26T01:35:42.627Z,99.99
2017-07-26T01:37:04.765Z,99.99
2017-07-26T01:38:26.695Z,99.99
2017-07-26T01:39:49.088Z,99.99
2017-07-26T01:41:10.647Z,99.99
2017-07-26T01:42:32.478Z,99.99
2017-07-26T01:43:53.407Z,99.99
2017-07-26T01:45:15.266Z,99.99
2017-07-26T01:46:37.094Z,99.99
2017-07-26T01:47:58.617Z,99.99
2017-07-26T01:49:20.126Z,99.99
2017-07-26T01:50:42.257Z,99.99
2017-07-26T01:52:04.089Z,99.99
2017-07-26T01:53:26.292Z,99.99
2017-07-26T01:54:48.105Z,99.99
2017-07-26T01:56:10.507Z,99.99
2017-07-26T01:57:32.668Z,99.99
2017-07-26T01:58:54.831Z,99.99
2017-07-26T02:00:17.284Z,99.99
2017-07-26T02:01:39.478Z,99.99
2017-07-26T02:03:01.636Z,99.99
2017-07-26T02:04:24.180Z,99.99
2017-07-26T02:05:45.779Z,99.99
2017-07-26T02:07:08.538Z,99.99
2017-07-26T02:08:30.067Z,99.99
2017-07-26T02:09:51.926Z,99.99
2017-07-26T02:11:13.827Z,99.99
2017-07-26T02:12:35.973Z,99.99
2017-07-26T02:13:58.447Z,99.99
2017-07-26T02:15:20.289Z,99.99
2017-07-26T02:16:42.538Z,99.99
2017-07-26T02:18:04.310Z,99.99
2017-07-26T02:19:26.489Z,99.99
2017-07-26T02:20:48.980Z,99.99
2017-07-26T02:22:10.815Z,99.99
2017-07-26T02:23:32.617Z,99.99
2017-07-26T02:24:54.767Z,99.99
2017-07-26T02:26:16.947Z,99.99
2017-07-26T02:27:39.426Z,99.99
2017-07-26T02:29:02.155Z,99.99
2017-07-26T02:30:24.408Z,99.99
2017-07-26T02:31:46.374Z,99.99
2017-07-26T02:33:08.329Z,99.99
2017-07-26T02:34:29.895Z,99.99
2017-07-26T02:35:51.738Z,99.99
2017-07-26T02:37:13.881Z,99.99
2017-07-26T02:38:35.702Z,99.99
2017-07-26T02:39:57.466Z,99.99
2017-07-26T02:41:19.359Z,99.99
2017-07-26T02:42:41.834Z,99.99
2017-07-26T02:44:04.487Z,99.99
2017-07-26T02:45:26.334Z,99.99
2017-07-26T02:46:48.837Z,99.99
2017-07-26T02:48:11.326Z,99.99
2017-07-26T02:49:32.534Z,99.99
2017-07-26T02:50:55.184Z,99.99
2017-07-26T02:52:16.705Z,99.99
2017-07-26T02:53:38.977Z,99.99
2017-07-26T02:55:01.128Z,99.99
2017-07-26T02:56:23.528Z,99.99
2017-07-26T02:57:45.366Z,99.99
2017-07-26T02:59:06.887Z,99.99
2017-07-26T03:00:28.420Z,99.99
2017-07-26T03:01:50.860Z,99.99
2017-07-26T03:03:13.337Z,99.99
2017-07-26T03:04:35.197Z,99.99
2017-07-26T03:05:56.711Z,99.99
2017-07-26T03:07:18.592Z,99.99
2017-07-26T03:08:41.047Z,99.99
2017-07-26T03:10:03.212Z,99.99
2017-07-26T03:11:25.359Z,99.99
2017-07-26T03:12:48.174Z,99.99
2017-07-26T03:14:10.015Z,99.99
2017-07-26T03:15:32.159Z,99.99
2017-07-26T03:16:54.303Z,99.99
2017-07-26T03:18:16.689Z,99.99
2017-07-26T03:19:38.297Z,99.99
2017-07-26T03:21:00.778Z,99.99
2017-07-26T03:22:23.039Z,99.99
2017-07-26T03:23:45.525Z,99.99
2017-07-26T03:25:07.674Z,99.99
2017-07-26T03:26:30.137Z,99.99
2017-07-26T03:27:52.717Z,99.99
2017-07-26T03:29:14.857Z,99.99
2017-07-26T03:30:37.008Z,99.99
2017-07-26T03:31:58.824Z,99.99
2017-07-26T03:33:20.706Z,99.99
2017-07-26T03:34:43.457Z,99.99
2017-07-26T03:36:05.014Z,99.99
2017-07-26T03:37:26.890Z,99.99
2017-07-26T03:38:48.404Z,99.99
2017-07-26T03:40:10.487Z,99.99
2017-07-26T03:41:32.326Z,99.99
2017-07-26T03:42:54.307Z,99.99
2017-07-26T03:44:16.450Z,99.99
2017-07-26T03:45:38.419Z,99.99
2017-07-26T03:47:00.277Z,99.99
2017-07-26T03:48:22.828Z,99.99
2017-07-26T03:49:44.699Z,99.99
2017-07-26T03:51:06.209Z,99.99
2017-07-26T03:52:28.037Z,99.99
2017-07-26T03:53:49.616Z,99.99
2017-07-26T03:55:11.116Z,99.99
2017-07-26T03:56:33.108Z,99.99
2017-07-26T03:57:55.602Z,99.99
2017-07-26T03:59:17.457Z,99.99
2017-07-26T04:00:39.895Z,99.99
2017-07-26T04:02:01.720Z,99.99
2017-07-26T04:03:23.617Z,99.99
2017-07-26T04:04:45.777Z,99.99
2017-07-26T04:06:07.616Z,99.99
2017-07-26T04:07:29.720Z,99.99
2017-07-26T04:08:51.872Z,99.99
2017-07-26T04:10:13.372Z,99.99
2017-07-26T04:11:35.229Z,99.99
2017-07-26T04:12:57.692Z,99.99
2017-07-26T04:14:20.038Z,99.99
2017-07-26T04:15:42.257Z,99.99
2017-07-26T04:17:04.188Z,99.99
2017-07-26T04:18:26.574Z,99.99
2017-07-26T04:19:48.526Z,99.99
2017-07-26T04:21:10.996Z,99.99
2017-07-26T04:22:32.245Z,99.99
2017-07-26T04:23:54.445Z,99.99
2017-07-26T04:25:16.603Z,99.99
2017-07-26T04:26:39.203Z,99.99
2017-07-26T04:28:00.409Z,99.99
2017-07-26T04:29:22.877Z,99.99
2017-07-26T04:30:44.837Z,99.99
2017-07-26T04:32:07.080Z,99.99
2017-07-26T04:33:29.218Z,99.99
2017-07-26T04:34:51.762Z,99.99
2017-07-26T04:36:13.698Z,99.99
2017-07-26T04:37:35.847Z,99.99
2017-07-26T04:38:57.997Z,99.99
2017-07-26T04:40:20.793Z,99.99
2017-07-26T04:41:43.006Z,99.99
2017-07-26T04:43:04.867Z,99.99
2017-07-26T04:44:27.064Z,99.99
2017-07-26T04:45:49.227Z,99.99
2017-07-26T04:47:10.796Z,99.99
2017-07-26T04:48:33.309Z,99.99
2017-07-26T04:49:55.187Z,99.99
2017-07-26T04:51:16.951Z,99.99
2017-07-26T04:52:38.466Z,99.99
2017-07-26T04:54:00.327Z,99.99
2017-07-26T04:55:21.544Z,99.99
2017-07-26T04:56:43.983Z,99.99
2017-07-26T04:58:05.554Z,99.99
2017-07-26T04:59:27.432Z,99.99
2017-07-26T05:00:49.288Z,99.99
2017-07-26T05:02:11.120Z,99.99
2017-07-26T05:03:33.379Z,99.99
2017-07-26T05:04:55.404Z,99.99
2017-07-26T05:06:16.924Z,99.99
2017-07-26T05:07:39.013Z,99.99
2017-07-26T05:09:01.143Z,99.99
2017-07-26T05:10:23.307Z,99.99
2017-07-26T05:11:45.175Z,99.99
2017-07-26T05:13:07.365Z,99.99
2017-07-26T05:14:29.214Z,99.99
2017-07-26T05:15:51.080Z,99.99
2017-07-26T05:17:13.211Z,99.99
2017-07-26T05:18:35.347Z,99.99
2017-07-26T05:19:57.256Z,99.99
2017-07-26T05:21:19.566Z,99.99
2017-07-26T05:22:41.415Z,99.99
2017-07-26T05:24:03.818Z,99.99
2017-07-26T05:25:25.640Z,99.99
2017-07-26T05:26:47.813Z,99.99
2017-07-26T05:28:09.687Z,99.99
2017-07-26T05:29:32.448Z,99.99
2017-07-26T05:30:54.372Z,99.99
2017-07-26T05:32:15.958Z,99.99
2017-07-26T05:33:38.550Z,99.99
2017-07-26T05:35:00.994Z,99.99
2017-07-26T05:36:22.818Z,99.99
2017-07-26T05:37:45.008Z,99.99
2017-07-26T05:39:07.156Z,99.99
2017-07-26T05:40:29.285Z,99.99
2017-07-26T05:41:51.449Z,99.99
2017-07-26T05:43:12.985Z,99.99
2017-07-26T05:44:35.159Z,99.99
2017-07-26T05:45:57.233Z,99.99
2017-07-26T05:47:18.780Z,99.99
2017-07-26T05:48:40.938Z,99.99
2017-07-26T05:50:03.088Z,99.99
2017-07-26T05:51:24.982Z,99.99
2017-07-26T05:52:46.883Z,99.99
2017-07-26T05:54:08.767Z,99.99
2017-07-26T05:55:30.917Z,99.99
2017-07-26T05:56:53.487Z,99.99
2017-07-26T05:58:15.665Z,99.99
2017-07-26T05:59:37.607Z,99.99
2017-07-26T06:00:59.805Z,99.99
2017-07-26T06:02:22.061Z,99.99
2017-07-26T06:03:43.945Z,99.99
2017-07-26T06:05:05.807Z,99.99
2017-07-26T06:06:27.965Z,99.99
2017-07-26T06:07:49.415Z,99.99
2017-07-26T06:09:11.269Z,99.99
2017-07-26T06:10:33.106Z,99.99
2017-07-26T06:11:55.556Z,99.99
2017-07-26T06:13:17.377Z,99.99
2017-07-26T06:14:39.212Z,99.99
2017-07-26T06:16:00.897Z,99.99
2017-07-26T06:17:23.060Z,99.99
2017-07-26T06:18:44.860Z,99.99
2017-07-26T06:20:06.707Z,99.99
2017-07-26T06:21:28.563Z,99.99
2017-07-26T06:22:50.454Z,99.99
2017-07-26T06:24:12.955Z,99.99
2017-07-26T06:25:35.196Z,99.99
2017-07-26T06:26:57.066Z,99.99
2017-07-26T06:28:19.307Z,99.99
2017-07-26T06:29:41.556Z,99.99
2017-07-26T06:31:03.086Z,99.99
2017-07-26T06:32:24.967Z,99.99
2017-07-26T06:33:46.501Z,99.99
2017-07-26T06:35:08.710Z,99.99
2017-07-26T06:36:31.188Z,99.99
2017-07-26T06:37:53.446Z,99.99
2017-07-26T06:39:14.965Z,99.99
2017-07-26T06:40:37.115Z,99.99
2017-07-26T06:41:58.643Z,99.99
2017-07-26T06:43:20.479Z,99.99
2017-07-26T06:44:43.047Z,99.99
2017-07-26T06:46:05.778Z,99.99
2017-07-26T06:47:27.945Z,99.99
2017-07-26T06:48:50.488Z,99.99
2017-07-26T06:50:12.346Z,99.99
2017-07-26T06:51:34.553Z,99.99
2017-07-26T06:52:57.149Z,99.99
2017-07-26T06:54:18.682Z,99.99
2017-07-26T06:55:40.970Z,99.99
2017-07-26T06:57:03.414Z,99.99
2017-07-26T06:58:25.566Z,99.99
2017-07-26T06:59:48.094Z,99.99
2017-07-26T07:01:09.927Z,99.99
2017-07-26T07:02:32.054Z,99.99
2017-07-26T07:03:54.246Z,99.99
2017-07-26T07:05:16.722Z,99.99
2017-07-26T07:06:38.571Z,99.99
2017-07-26T07:08:01.074Z,99.99
2017-07-26T07:09:22.925Z,99.99
2017-07-26T07:10:45.401Z,99.99
2017-07-26T07:12:07.873Z,99.99
2017-07-26T07:13:30.483Z,99.99
2017-07-26T07:14:52.987Z,99.99
2017-07-26T07:16:15.162Z,99.99
2017-07-26T07:17:37.316Z,99.99
2017-07-26T07:18:59.507Z,99.99
2017-07-26T07:20:21.446Z,99.99
2017-07-26T07:21:43.422Z,99.99
2017-07-26T07:23:05.372Z,99.99
2017-07-26T07:24:27.907Z,99.99
2017-07-26T07:25:50.089Z,99.99
2017-07-26T07:27:12.573Z,99.99
2017-07-26T07:28:35.119Z,99.99
2017-07-26T07:29:57.856Z,99.99
2017-07-26T07:31:19.776Z,99.99
2017-07-26T07:32:42.256Z,99.99
2017-07-26T07:34:04.108Z,99.99
2017-07-26T07:35:26.605Z,99.99
2017-07-26T07:36:48.496Z,99.99
2017-07-26T07:38:10.396Z,99.99
2017-07-26T07:39:32.547Z,99.99
2017-07-26T07:40:55.325Z,99.99
2017-07-26T07:42:17.166Z,99.99
2017-07-26T07:43:39.431Z,99.99
2017-07-26T07:45:01.270Z,99.99
2017-07-26T07:46:22.725Z,99.99
2017-07-26T07:47:44.563Z,99.99
2017-07-26T07:49:06.707Z,99.99
2017-07-26T07:50:28.536Z,99.99
2017-07-26T07:51:51.145Z,99.99
2017-07-26T07:53:13.304Z,99.99
2017-07-26T07:54:35.458Z,99.99
2017-07-26T07:55:57.967Z,99.99
2017-07-26T07:57:20.148Z,99.99
2017-07-26T07:58:42.335Z,99.99
2017-07-26T08:00:03.559Z,99.99
2017-07-26T08:01:26.066Z,99.99
2017-07-26T08:02:48.535Z,99.99
2017-07-26T08:04:11.008Z,99.99
2017-07-26T08:05:33.510Z,99.99
2017-07-26T08:06:55.674Z,99.99
2017-07-26T08:08:18.075Z,99.99
2017-07-26T08:09:39.611Z,99.99
2017-07-26T08:11:02.324Z,99.99
2017-07-26T08:12:24.590Z,99.99
2017-07-26T08:13:47.471Z,99.99
2017-07-26T08:15:10.016Z,99.99
2017-07-26T08:16:31.557Z,99.99
2017-07-26T08:17:54.286Z,99.99
2017-07-26T08:19:17.053Z,99.99
2017-07-26T08:20:39.557Z,99.99
2017-07-26T08:22:01.095Z,99.99
2017-07-26T08:23:22.925Z,99.99
2017-07-26T08:24:45.018Z,99.99
2017-07-26T08:26:07.295Z,99.99
2017-07-26T08:27:29.768Z,99.99
2017-07-26T08:28:51.606Z,99.99
2017-07-26T08:30:13.416Z,99.99
2017-07-26T08:31:35.598Z,99.99
2017-07-26T08:32:57.918Z,99.99
2017-07-26T08:34:19.812Z,99.99
2017-07-26T08:35:42.221Z,99.99
2017-07-26T08:37:04.093Z,99.99
2017-07-26T08:38:25.959Z,99.99
2017-07-26T08:39:47.863Z,99.99
2017-07-26T08:41:10.032Z,99.99
2017-07-26T08:42:32.186Z,99.99
2017-07-26T08:43:54.036Z,99.99
2017-07-26T08:45:16.608Z,99.99
2017-07-26T08:46:38.775Z,99.99
2017-07-26T08:48:01.296Z,99.99
2017-07-26T08:49:23.448Z,99.99
2017-07-26T08:50:45.968Z,99.99
2017-07-26T08:52:07.769Z,99.99
2017-07-26T08:53:29.310Z,99.99
2017-07-26T08:54:51.809Z,99.99
2017-07-26T08:56:13.664Z,99.99
2017-07-26T08:57:35.979Z,99.99
2017-07-26T08:58:57.505Z,99.99
2017-07-26T09:00:19.435Z,99.99
2017-07-26T09:01:41.928Z,99.99
2017-07-26T09:03:03.765Z,99.99
2017-07-26T09:04:25.938Z,99.99
2017-07-26T09:05:48.116Z,99.99
2017-07-26T09:07:10.596Z,99.99
2017-07-26T09:08:33.088Z,99.46
2017-07-26T09:09:54.963Z,99.6
2017-07-26T09:11:16.798Z,98.05
2017-07-26T09:12:38.663Z,98.15
2017-07-26T09:14:01.488Z,96.89
2017-07-26T09:15:23.097Z,97.62
2017-07-26T09:16:45.576Z,96.36
2017-07-26T09:18:07.436Z,96.36
2017-07-26T09:19:29.897Z,95.59
2017-07-26T09:20:52.207Z,94.71
2017-07-26T09:22:14.380Z,94.91
2017-07-26T09:23:36.012Z,94.91
2017-07-26T09:24:58.548Z,94.67
2017-07-26T09:26:21.048Z,94.28
2017-07-26T09:27:43.202Z,93.94
2017-07-26T09:29:05.413Z,92.73
2017-07-26T09:30:27.902Z,95.01
2017-07-26T09:31:50.407Z,95.78
2017-07-26T09:33:12.253Z,93.55
2017-07-26T09:34:34.166Z,94.28
2017-07-26T09:35:56.962Z,92.58
2017-07-26T09:37:19.522Z,92.1
2017-07-26T09:38:41.393Z,90.46
2017-07-26T09:40:03.587Z,91.04
2017-07-26T09:41:26.056Z,91.76
2017-07-26T09:42:48.243Z,94.24
2017-07-26T09:44:12.017Z,94.62
2017-07-26T09:45:34.647Z,93.41
2017-07-26T09:46:57.225Z,92.2
2017-07-26T09:48:19.396Z,90.02
2017-07-26T09:49:41.585Z,91.42
2017-07-26T09:51:03.199Z,91.09
2017-07-26T09:52:25.376Z,90.61
2017-07-26T09:53:47.624Z,91.52
2017-07-26T09:55:09.515Z,90.9
2017-07-26T09:56:31.698Z,90.36
2017-07-26T09:57:54.136Z,88.37
2017-07-26T09:59:15.672Z,91.76
2017-07-26T10:00:37.852Z,92.44
2017-07-26T10:02:00.049Z,90.07
2017-07-26T10:03:21.936Z,89.48
2017-07-26T10:04:43.246Z,88.09
2017-07-26T10:06:05.713Z,91.04
2017-07-26T10:07:27.879Z,92.2
2017-07-26T10:08:50.393Z,93.32
2017-07-26T10:10:12.686Z,95.2
2017-07-26T10:11:34.525Z,95.45
2017-07-26T10:12:56.683Z,95.54
2017-07-26T10:14:19.454Z,98.2
2017-07-26T10:15:41.318Z,98.63
2017-07-26T10:17:03.234Z,96.94
2017-07-26T10:18:25.396Z,95.98
2017-07-26T10:19:48.275Z,97.14
2017-07-26T10:21:09.497Z,96.61
2017-07-26T10:22:31.361Z,93.99
2017-07-26T10:23:52.986Z,92.58
2017-07-26T10:25:15.476Z,92.35
2017-07-26T10:26:37.679Z,91.58
2017-07-26T10:27:59.826Z,92.2
2017-07-26T10:29:22.007Z,90.99
2017-07-26T10:30:44.089Z,91.67
2017-07-26T10:32:06.429Z,90.41
2017-07-26T10:33:27.968Z,88.81
2017-07-26T10:34:49.837Z,89.88
2017-07-26T10:36:12.605Z,90.5
2017-07-26T10:37:35.078Z,90.99
2017-07-26T10:38:56.995Z,92.3
2017-07-26T10:40:19.208Z,93.8
2017-07-26T10:41:41.637Z,95.06
2017-07-26T10:43:03.576Z,94.67
2017-07-26T10:44:25.436Z,94.38
2017-07-26T10:45:47.389Z,93.23
2017-07-26T10:47:09.542Z,94.14
2017-07-26T10:48:31.811Z,95.25
2017-07-26T10:49:54.295Z,96.26
2017-07-26T10:51:16.775Z,96.61
2017-07-26T10:52:39.257Z,94.38
2017-07-26T10:54:01.408Z,96.41
2017-07-26T10:55:23.895Z,94.57
2017-07-26T10:56:45.427Z,95.49
2017-07-26T10:58:08.583Z,92.49
2017-07-26T10:59:31.076Z,92.25
2017-07-26T11:00:53.347Z,91
2017-07-26T11:02:15.206Z,91.87
2017-07-26T11:03:37.426Z,91.33
2017-07-26T11:04:59.273Z,91.58
2017-07-26T11:06:21.168Z,91.24
2017-07-26T11:07:43.665Z,92.73
2017-07-26T11:09:05.755Z,88.47
2017-07-26T11:10:27.902Z,87.75
2017-07-26T11:11:49.416Z,88.09
2017-07-26T11:13:11.941Z,89.89
2017-07-26T11:14:34.466Z,89.98
2017-07-26T11:15:56.638Z,91.97
2017-07-26T11:17:18.714Z,91.33
2017-07-26T11:18:40.896Z,90.51
2017-07-26T11:20:03.055Z,88.77
2017-07-26T11:21:24.956Z,87.55
2017-07-26T11:22:47.103Z,87.07
2017-07-26T11:24:09.563Z,87.07
2017-07-26T11:25:31.386Z,87.12
2017-07-26T11:26:53.245Z,87.5
2017-07-26T11:28:15.816Z,85.76
2017-07-26T11:29:38.287Z,85.8
2017-07-26T11:31:01.363Z,85.8
2017-07-26T11:32:23.236Z,87.06
2017-07-26T11:33:45.725Z,85.86
2017-07-26T11:35:07.884Z,85.28
2017-07-26T11:36:30.768Z,85.66
2017-07-26T11:37:53.107Z,82.95
2017-07-26T11:39:15.275Z,82.76
2017-07-26T11:40:37.819Z,84.6
2017-07-26T11:42:00.258Z,82.41
2017-07-26T11:43:22.596Z,80.94
2017-07-26T11:44:44.913Z,83.56
2017-07-26T11:46:06.883Z,85.85
2017-07-26T11:47:28.991Z,84.45
2017-07-26T11:48:51.475Z,85.18
2017-07-26T11:50:13.688Z,87.41
2017-07-26T11:51:36.207Z,87.23
2017-07-26T11:52:58.918Z,88.92
2017-07-26T11:54:21.115Z,90.37
2017-07-26T11:55:42.332Z,91.05
2017-07-26T11:57:04.341Z,87.51
2017-07-26T11:58:26.552Z,85.42
2017-07-26T11:59:49.116Z,85.37
2017-07-26T12:01:11.399Z,84.49
2017-07-26T12:02:33.255Z,82.4
2017-07-26T12:03:55.471Z,82.73
2017-07-26T12:05:17.983Z,79.58
2017-07-26T12:06:39.823Z,79.91
2017-07-26T12:08:02.304Z,80.26
2017-07-26T12:09:24.760Z,82.59
2017-07-26T12:10:47.235Z,84.24
2017-07-26T12:12:08.445Z,84.97
2017-07-26T12:13:30.269Z,85.8
2017-07-26T12:14:52.445Z,86.2
2017-07-26T12:16:14.941Z,85.72
2017-07-26T12:17:36.824Z,85.47
2017-07-26T12:18:59.025Z,88.33
2017-07-26T12:20:21.205Z,88.67
2017-07-26T12:21:43.452Z,85.86
2017-07-26T12:23:05.692Z,84.74
2017-07-26T12:24:27.635Z,84.11
2017-07-26T12:25:50.432Z,84.01
2017-07-26T12:27:12.415Z,84.41
2017-07-26T12:28:34.585Z,85.96
2017-07-26T12:29:56.756Z,85.66
2017-07-26T12:31:19.292Z,83.73
2017-07-26T12:32:41.458Z,84.79
2017-07-26T12:34:03.626Z,84.06
2017-07-26T12:35:26.103Z,81.73
2017-07-26T12:36:48.893Z,84.93
2017-07-26T12:38:10.871Z,83.86
2017-07-26T12:39:33.050Z,80.22
2017-07-26T12:40:55.215Z,80.9
2017-07-26T12:42:17.357Z,85.31
2017-07-26T12:43:39.864Z,83.86
2017-07-26T12:45:02.043Z,80.9
2017-07-26T12:46:24.323Z,80.71
2017-07-26T12:47:46.477Z,80.46
2017-07-26T12:49:08.396Z,82.45
2017-07-26T12:50:30.358Z,82.45
2017-07-26T12:51:52.868Z,81.58
2017-07-26T12:53:15.343Z,83.33
2017-07-26T12:54:37.213Z,81.58
2017-07-26T12:55:59.684Z,82.41
2017-07-26T12:57:21.862Z,80.92
2017-07-26T12:58:44.385Z,81.6
2017-07-26T13:00:06.235Z,84.41
2017-07-26T13:01:27.767Z,86
2017-07-26T13:02:49.977Z,83
2017-07-26T13:04:12.386Z,83.77
2017-07-26T13:05:34.572Z,81.73
2017-07-26T13:06:56.756Z,83.18
2017-07-26T13:08:19.243Z,81.21
2017-07-26T13:09:41.115Z,80.67
2017-07-26T13:11:03.480Z,82.7
2017-07-26T13:12:25.686Z,83.83
2017-07-26T13:13:48.306Z,84.6
2017-07-26T13:15:11.064Z,83.25
2017-07-26T13:16:33.235Z,82.66
2017-07-26T13:17:55.417Z,84.79
2017-07-26T13:19:17.395Z,83.34
2017-07-26T13:20:39.815Z,82.81
2017-07-26T13:22:01.364Z,82.72
2017-07-26T13:23:23.865Z,83.64
2017-07-26T13:24:46.010Z,83.36
2017-07-26T13:26:08.744Z,82.43
2017-07-26T13:27:30.275Z,84.08
2017-07-26T13:28:52.745Z,82.72
2017-07-26T13:30:14.974Z,82.91
2017-07-26T13:31:37.408Z,84.56
2017-07-26T13:32:59.882Z,84.56
2017-07-26T13:34:22.064Z,86.01
2017-07-26T13:35:43.634Z,82.53
2017-07-26T13:37:05.761Z,82.43
2017-07-26T13:38:28.247Z,80.01
2017-07-26T13:39:50.094Z,80.94
2017-07-26T13:41:12.001Z,81.04
2017-07-26T13:42:34.526Z,80.69
2017-07-26T13:43:56.782Z,79.82
2017-07-26T13:45:19.306Z,82.14
2017-07-26T13:46:41.478Z,85.52
2017-07-26T13:48:03.636Z,82.95
2017-07-26T13:49:25.835Z,82.51
2017-07-26T13:50:47.408Z,82.32
2017-07-26T13:52:09.902Z,82.18
2017-07-26T13:53:32.272Z,83.69
2017-07-26T13:54:53.496Z,84.66
2017-07-26T13:56:15.359Z,84.66
2017-07-26T13:57:37.998Z,84.75
2017-07-26T13:59:00.533Z,84.75
2017-07-26T14:00:23.017Z,86.2
2017-07-26T14:01:44.991Z,86.74
2017-07-26T14:03:06.845Z,85.72
2017-07-26T14:04:28.962Z,85.58
2017-07-26T14:05:51.210Z,84.71
2017-07-26T14:07:13.363Z,85
2017-07-26T14:08:35.671Z,82.81
2017-07-26T14:09:57.913Z,85.68
2017-07-26T14:11:19.765Z,85.58
2017-07-26T14:12:41.948Z,85.04
2017-07-26T14:14:03.809Z,86.2
2017-07-26T14:15:25.662Z,88.62
2017-07-26T14:16:47.854Z,85.24
2017-07-26T14:18:10.344Z,86.4
2017-07-26T14:19:32.511Z,82.72
2017-07-26T14:20:54.645Z,84.17
2017-07-26T14:22:17.173Z,83.06
2017-07-26T14:23:39.506Z,83.4
2017-07-26T14:25:01.705Z,83.64
2017-07-26T14:26:24.534Z,85.68
2017-07-26T14:27:46.704Z,86.74
2017-07-26T14:29:08.858Z,86.45
2017-07-26T14:30:31.392Z,86.25
2017-07-26T14:31:53.683Z,84.8
2017-07-26T14:33:15.524Z,84.22
2017-07-26T14:34:38.030Z,83.16
2017-07-26T14:35:59.921Z,85.68
2017-07-26T14:37:22.703Z,84.09
2017-07-26T14:38:44.623Z,84.86
2017-07-26T14:40:06.805Z,85.05
2017-07-26T14:41:28.652Z,85.53
2017-07-26T14:42:51.223Z,84.95
2017-07-26T14:44:13.113Z,83.41
2017-07-26T14:45:35.652Z,84.22
2017-07-26T14:46:57.494Z,84.32
2017-07-26T14:48:19.573Z,85.58
2017-07-26T14:49:41.744Z,85.87
2017-07-26T14:51:03.626Z,83.84
2017-07-26T14:52:26.111Z,83.64
2017-07-26T14:53:47.573Z,85.77
2017-07-26T14:55:09.421Z,83.74
2017-07-26T14:56:31.609Z,85.44
2017-07-26T14:57:53.455Z,87.66
2017-07-26T14:59:15.683Z,89.15
2017-07-26T15:00:37.536Z,84.22
2017-07-26T15:02:00.011Z,84.38
2017-07-26T15:03:22.186Z,85.53
2017-07-26T15:04:44.613Z,86.21
2017-07-26T15:06:06.763Z,85.44
2017-07-26T15:07:28.729Z,87.18
2017-07-26T15:08:51.000Z,86.65
2017-07-26T15:10:13.486Z,87.95
2017-07-26T15:11:35.066Z,86.74
2017-07-26T15:12:57.565Z,87.51
2017-07-26T15:14:20.075Z,85.68
2017-07-26T15:15:42.608Z,85.1
2017-07-26T15:17:04.541Z,85.58
2017-07-26T15:18:26.769Z,86.25
2017-07-26T15:19:48.681Z,82.78
2017-07-26T15:21:11.190Z,82.87
2017-07-26T15:22:33.056Z,84.67
2017-07-26T15:23:55.265Z,85.53
2017-07-26T15:25:17.634Z,85.48
2017-07-26T15:26:40.114Z,83.26
2017-07-26T15:28:02.295Z,84.32
2017-07-26T15:29:24.784Z,85.53
2017-07-26T15:30:46.705Z,85.53
2017-07-26T15:32:08.826Z,86.21
2017-07-26T15:33:31.432Z,84.86
2017-07-26T15:34:52.698Z,86.69
2017-07-26T15:36:14.934Z,86.51
2017-07-26T15:37:36.764Z,86.02
2017-07-26T15:38:59.005Z,85.83
2017-07-26T15:40:20.897Z,86.21
2017-07-26T15:41:42.428Z,86.11
2017-07-26T15:43:04.553Z,85.44
2017-07-26T15:44:26.425Z,84.95
2017-07-26T15:45:48.603Z,85.35
2017-07-26T15:47:10.784Z,86.56
2017-07-26T15:48:32.634Z,87.23
2017-07-26T15:49:55.118Z,87.91
2017-07-26T15:51:17.384Z,87.62
2017-07-26T15:52:39.563Z,89.45
2017-07-26T15:54:02.383Z,89.07
2017-07-26T15:55:24.535Z,88.39
2017-07-26T15:56:46.705Z,89.22
2017-07-26T15:58:08.944Z,90.86
2017-07-26T15:59:31.447Z,89.94
2017-07-26T16:00:53.312Z,90.71
2017-07-26T16:02:15.814Z,90.95
2017-07-26T16:03:37.689Z,91.77
2017-07-26T16:05:00.605Z,90.13
2017-07-26T16:06:22.527Z,91.15
2017-07-26T16:07:45.117Z,92.79
2017-07-26T16:09:07.306Z,91.63
2017-07-26T16:10:29.137Z,90.91
2017-07-26T16:11:51.365Z,91.35
2017-07-26T16:13:13.878Z,91.15
2017-07-26T16:14:36.067Z,91.35
2017-07-26T16:15:58.923Z,93.08
2017-07-26T16:17:21.120Z,93.37
2017-07-26T16:18:43.271Z,93.95
2017-07-26T16:20:05.506Z,93.85
2017-07-26T16:21:28.126Z,94.92
2017-07-26T16:22:50.710Z,93.27
2017-07-26T16:24:12.954Z,92.89
2017-07-26T16:25:35.434Z,92.5
2017-07-26T16:26:58.085Z,93.76
2017-07-26T16:28:20.273Z,93.61
2017-07-26T16:29:42.782Z,94.48
2017-07-26T16:31:04.980Z,93.8
2017-07-26T16:32:27.498Z,93.99
2017-07-26T16:33:49.354Z,92.93
2017-07-26T16:35:11.608Z,91.97
2017-07-26T16:36:33.821Z,92.16
2017-07-26T16:37:56.288Z,92.45
2017-07-26T16:39:17.816Z,91.25
2017-07-26T16:40:40.298Z,92.16
2017-07-26T16:42:02.470Z,91.09
2017-07-26T16:43:24.982Z,91.77
2017-07-26T16:44:46.945Z,93.03
2017-07-26T16:46:09.525Z,91.19
2017-07-26T16:47:32.100Z,91.39
2017-07-26T16:48:54.506Z,91.19
2017-07-26T16:50:17.012Z,91.97
2017-07-26T16:51:39.516Z,91.82
2017-07-26T16:53:01.710Z,91.39
2017-07-26T16:54:24.120Z,92.16
2017-07-26T16:55:46.335Z,92.07
2017-07-26T16:57:08.218Z,90.03
2017-07-26T16:58:30.698Z,91.19
2017-07-26T16:59:53.006Z,90.81
2017-07-26T17:01:15.482Z,89.65
2017-07-26T17:02:37.768Z,91.67
2017-07-26T17:04:00.112Z,90.42
2017-07-26T17:05:22.852Z,90.61
2017-07-26T17:06:44.424Z,91.29
2017-07-26T17:08:07.037Z,91.05
2017-07-26T17:09:29.533Z,90.13
2017-07-26T17:10:51.698Z,89.4
2017-07-26T17:12:13.898Z,89.17
2017-07-26T17:13:36.143Z,90.03
2017-07-26T17:14:58.372Z,88.68
2017-07-26T17:16:20.893Z,90.03
2017-07-26T17:17:43.368Z,89.65
2017-07-26T17:19:05.855Z,90.71
2017-07-26T17:20:27.745Z,91.87
2017-07-26T17:21:50.176Z,91.39
2017-07-26T17:23:12.575Z,89.75
2017-07-26T17:24:34.726Z,91.09
2017-07-26T17:25:57.015Z,91.25
2017-07-26T17:27:19.765Z,90.77
2017-07-26T17:28:42.260Z,90.67
2017-07-26T17:30:04.423Z,90.67
2017-07-26T17:31:26.614Z,90.77
2017-07-26T17:32:49.396Z,90.67
2017-07-26T17:34:11.886Z,91.53
2017-07-26T17:35:34.156Z,91.25
2017-07-26T17:36:56.626Z,93.08
2017-07-26T17:38:18.886Z,93.08
2017-07-26T17:39:40.737Z,92.98
2017-07-26T17:41:03.246Z,93.18